Time;durP1;ratioP1;P1;durP2;ratioP2;P2;SDS_P1;SDS_P2;PMS_P1;PMS_P2;Temp;Humidity;BMP_temperature;BMP_pressure;BME280_temperature;BME280_humidity;BME280_pressure;Samples;Min_cycle;Max_cycle;Signal;HPM_P1;HPM_P2
2023/05/25 00:00:57;;;;;;;0.22;0.22;;;11.90;99.90;;;;;;4999745;28;20030;-68
2023/05/25 00:03:26;;;;;;;0.20;0.20;;;11.90;99.90;;;;;;5004722;28;20044;-69
2023/05/25 00:05:52;;;;;;;1.20;1.15;;;11.80;99.90;;;;;;5014657;28;20116;-68
2023/05/25 00:08:18;;;;;;;0.30;0.30;;;11.80;99.90;;;;;;5009952;28;20070;-69
2023/05/25 00:10:43;;;;;;;0.40;0.40;;;11.80;99.90;;;;;;5003922;28;20472;-68
2023/05/25 00:13:09;;;;;;;0.75;0.55;;;11.80;99.90;;;;;;5010475;28;20044;-69
2023/05/25 00:15:34;;;;;;;0.10;0.10;;;11.80;99.90;;;;;;5007721;28;20042;-68
2023/05/25 00:18:00;;;;;;;0.10;0.10;;;11.80;99.90;;;;;;4999543;28;20053;-68
2023/05/25 00:20:27;;;;;;;0.20;0.20;;;11.80;99.90;;;;;;5006751;28;20149;-68
2023/05/25 00:22:55;;;;;;;0.30;0.30;;;11.70;99.90;;;;;;4999252;28;20065;-68
2023/05/25 00:25:20;;;;;;;0.03;0.03;;;11.80;99.90;;;;;;5007270;28;20139;-68
2023/05/25 00:27:46;;;;;;;17.30;0.93;;;11.80;99.90;;;;;;5004766;28;20058;-68
2023/05/25 00:30:12;;;;;;;0.20;0.20;;;11.80;99.90;;;;;;5006754;28;20100;-68
2023/05/25 00:32:37;;;;;;;0.10;0.10;;;11.80;99.90;;;;;;4998274;28;20045;-68
2023/05/25 00:35:03;;;;;;;0.00;0.00;;;11.80;99.90;;;;;;5007777;28;20092;-68
2023/05/25 00:37:29;;;;;;;0.10;0.10;;;11.80;99.90;;;;;;4994965;28;20038;-68
2023/05/25 00:39:55;;;;;;;0.22;0.15;;;11.80;99.90;;;;;;5007561;28;20034;-68
2023/05/25 00:42:21;;;;;;;0.10;0.10;;;11.70;99.90;;;;;;5015680;28;20038;-68
2023/05/25 00:44:47;;;;;;;1.30;0.63;;;11.70;99.90;;;;;;5012002;28;20046;-68
2023/05/25 00:47:13;;;;;;;0.00;0.00;;;11.70;99.90;;;;;;5000060;28;20510;-68
2023/05/25 00:49:40;;;;;;;4.70;0.98;;;11.70;99.90;;;;;;5004216;28;20049;-68
2023/05/25 00:52:06;;;;;;;0.52;0.52;;;11.70;99.90;;;;;;5039493;28;20152;-68
2023/05/25 00:54:32;;;;;;;13.82;1.13;;;11.60;99.90;;;;;;4999086;28;20484;-68
2023/05/25 00:57:03;;;;;;;0.10;0.10;;;11.70;99.90;;;;;;5006673;28;20084;-68
2023/05/25 00:59:43;;;;;;;0.30;0.30;;;11.60;99.90;;;;;;5025995;28;20060;-68
2023/05/25 01:02:16;;;;;;;0.10;0.10;;;11.60;99.90;;;;;;5005265;28;20568;-68
2023/05/25 01:04:52;;;;;;;1.02;0.98;;;11.60;99.90;;;;;;5011525;28;20076;-68
2023/05/25 01:07:24;;;;;;;2.08;1.88;;;11.60;99.90;;;;;;5009931;28;20049;-68
2023/05/25 01:09:56;;;;;;;1.75;0.85;;;11.60;99.90;;;;;;5006703;28;20054;-68
2023/05/25 01:12:25;;;;;;;0.10;0.10;;;11.60;99.90;;;;;;4995341;28;20057;-68
2023/05/25 01:14:52;;;;;;;0.55;0.55;;;11.60;99.90;;;;;;5009808;28;20474;-68
2023/05/25 01:17:19;;;;;;;0.20;0.20;;;11.50;99.90;;;;;;5011359;28;20145;-68
2023/05/25 01:19:44;;;;;;;1.00;1.00;;;11.50;99.90;;;;;;5006034;28;20041;-68
2023/05/25 01:22:17;;;;;;;0.10;0.10;;;11.40;99.90;;;;;;5002930;28;20504;-68
2023/05/25 01:24:47;;;;;;;0.20;0.20;;;11.50;99.90;;;;;;5010784;28;20048;-68
2023/05/25 01:27:37;;;;;;;0.10;0.10;;;11.40;99.90;;;;;;5001235;28;20818;-68
2023/05/25 01:30:05;;;;;;;0.20;0.20;;;11.40;99.90;;;;;;5040011;28;20054;-69
2023/05/25 01:32:31;;;;;;;0.10;0.10;;;11.50;99.90;;;;;;5010125;28;20045;-68
2023/05/25 01:34:59;;;;;;;0.20;0.20;;;11.40;99.90;;;;;;4998864;28;20499;-68
2023/05/25 01:37:26;;;;;;;0.10;0.10;;;11.40;99.90;;;;;;4999400;28;20046;-68
2023/05/25 01:39:52;;;;;;;0.10;0.10;;;11.40;99.90;;;;;;5010551;28;20049;-68
2023/05/25 01:42:17;;;;;;;0.10;0.10;;;11.40;99.90;;;;;;4999698;28;20046;-68
2023/05/25 01:44:43;;;;;;;1.00;0.90;;;11.40;99.90;;;;;;5002815;28;20042;-68
2023/05/25 01:47:36;;;;;;;0.10;0.10;;;11.40;99.90;;;;;;5002136;28;20099;-68
2023/05/25 01:50:08;;;;;;;5.15;0.90;;;11.40;99.90;;;;;;5008356;28;20052;-68
2023/05/25 01:52:54;;;;;;;0.13;0.13;;;11.40;99.90;;;;;;5001947;28;20113;-68
2023/05/25 01:55:25;;;;;;;0.98;0.98;;;11.40;99.90;;;;;;5006106;28;20121;-68
2023/05/25 01:57:56;;;;;;;0.10;0.10;;;11.40;99.90;;;;;;5010572;28;20044;-68
2023/05/25 02:00:26;;;;;;;0.10;0.10;;;11.40;99.90;;;;;;5007847;28;20045;-68
2023/05/25 02:02:53;;;;;;;0.38;0.38;;;11.30;99.90;;;;;;5003388;28;20042;-68
2023/05/25 02:05:20;;;;;;;0.10;0.10;;;11.40;99.90;;;;;;5006499;28;20508;-68
2023/05/25 02:07:45;;;;;;;0.10;0.10;;;11.30;99.90;;;;;;5007384;28;20483;-68
2023/05/25 02:10:11;;;;;;;0.20;0.20;;;11.30;99.90;;;;;;4997005;28;20113;-68
2023/05/25 02:12:36;;;;;;;1.38;1.00;;;11.30;99.90;;;;;;5003848;28;20081;-68
2023/05/25 02:15:03;;;;;;;0.10;0.10;;;11.30;99.90;;;;;;5002684;28;20053;-68
2023/05/25 02:17:29;;;;;;;0.47;0.47;;;11.30;99.90;;;;;;5008207;28;20137;-68
2023/05/25 02:19:54;;;;;;;0.10;0.10;;;11.30;99.90;;;;;;5005427;28;20133;-68
2023/05/25 02:22:21;;;;;;;0.43;0.43;;;11.30;99.90;;;;;;5006944;28;20038;-68
2023/05/25 02:24:47;;;;;;;1.30;1.13;;;11.30;99.90;;;;;;5003719;28;20041;-68
2023/05/25 02:27:13;;;;;;;0.10;0.10;;;11.20;99.90;;;;;;5006521;28;20033;-68
2023/05/25 02:29:39;;;;;;;0.47;0.47;;;11.20;99.90;;;;;;5009006;28;20057;-68
2023/05/25 02:32:05;;;;;;;0.00;0.00;;;11.20;99.90;;;;;;5008155;28;20104;-68
2023/05/25 02:34:31;;;;;;;0.10;0.10;;;11.20;99.90;;;;;;5000774;28;20053;-68
2023/05/25 02:36:57;;;;;;;3.38;0.85;;;11.20;99.90;;;;;;5005088;28;20030;-68
2023/05/25 02:39:25;;;;;;;0.10;0.10;;;11.20;99.90;;;;;;5009270;28;20041;-68
2023/05/25 02:41:50;;;;;;;0.22;0.22;;;11.10;99.90;;;;;;5004387;28;20132;-68
2023/05/25 02:44:16;;;;;;;0.10;0.10;;;11.10;99.90;;;;;;5004502;28;20133;-68
2023/05/25 02:46:41;;;;;;;0.10;0.10;;;11.20;99.90;;;;;;5000771;28;20050;-68
2023/05/25 02:49:07;;;;;;;1.17;1.08;;;11.20;99.90;;;;;;4994075;28;20038;-68
2023/05/25 02:51:32;;;;;;;6.97;0.63;;;11.10;99.90;;;;;;5003551;28;20453;-68
2023/05/25 02:53:58;;;;;;;0.17;0.17;;;11.10;99.90;;;;;;4998903;28;20077;-68
2023/05/25 02:56:25;;;;;;;0.80;0.47;;;11.10;99.90;;;;;;5006928;28;20046;-68
2023/05/25 02:58:50;;;;;;;0.00;0.00;;;11.10;99.90;;;;;;4993989;28;20053;-67
2023/05/25 03:01:19;;;;;;;0.52;0.52;;;11.10;99.90;;;;;;5007771;28;20043;-68
2023/05/25 03:03:46;;;;;;;0.10;0.10;;;11.10;99.90;;;;;;5012620;28;20076;-68
2023/05/25 03:06:12;;;;;;;1.90;1.25;;;11.00;99.90;;;;;;5042228;28;20046;-68
2023/05/25 03:08:39;;;;;;;0.38;0.38;;;11.00;99.90;;;;;;4992223;28;20054;-69
2023/05/25 03:11:04;;;;;;;0.22;0.22;;;11.00;99.90;;;;;;5005257;28;20042;-68
2023/05/25 03:13:30;;;;;;;0.10;0.10;;;11.00;99.90;;;;;;5001758;28;20382;-67
2023/05/25 03:15:55;;;;;;;0.10;0.10;;;11.00;99.90;;;;;;5012893;28;20034;-67
2023/05/25 03:18:21;;;;;;;2.55;1.40;;;11.00;99.90;;;;;;5012121;28;20089;-67
2023/05/25 03:20:47;;;;;;;0.63;0.63;;;11.00;99.90;;;;;;5030120;28;20125;-67
2023/05/25 03:23:12;;;;;;;0.10;0.10;;;11.00;99.90;;;;;;5013332;28;20049;-67
2023/05/25 03:25:38;;;;;;;0.30;0.30;;;11.00;99.90;;;;;;5001717;28;20532;-67
2023/05/25 03:28:03;;;;;;;0.30;0.30;;;11.00;99.90;;;;;;5007645;28;20410;-68
2023/05/25 03:30:30;;;;;;;0.10;0.10;;;11.00;99.90;;;;;;5005858;28;20050;-67
2023/05/25 03:32:56;;;;;;;0.15;0.15;;;11.00;99.90;;;;;;5012638;28;20054;-67
2023/05/25 03:35:21;;;;;;;0.10;0.10;;;11.00;99.90;;;;;;5005120;28;20049;-68
2023/05/25 03:37:47;;;;;;;0.52;0.30;;;11.00;99.90;;;;;;5044891;28;20041;-67
2023/05/25 03:40:13;;;;;;;0.30;0.30;;;11.00;99.90;;;;;;5007562;28;20099;-68
2023/05/25 03:42:38;;;;;;;0.20;0.20;;;11.00;99.90;;;;;;4998720;28;20133;-67
2023/05/25 03:45:05;;;;;;;0.10;0.10;;;11.10;99.90;;;;;;5025011;28;20053;-67
2023/05/25 03:47:31;;;;;;;0.22;0.22;;;11.10;99.90;;;;;;5025694;28;20054;-67
2023/05/25 03:49:56;;;;;;;1.05;0.95;;;11.00;99.90;;;;;;4995901;28;20054;-67
2023/05/25 03:52:22;;;;;;;8.68;1.98;;;11.10;99.90;;;;;;5008573;28;20497;-68
2023/05/25 03:54:48;;;;;;;0.10;0.10;;;11.10;99.90;;;;;;5004450;28;20042;-67
2023/05/25 03:57:14;;;;;;;0.10;0.10;;;11.10;99.90;;;;;;5000540;28;20050;-67
2023/05/25 03:59:39;;;;;;;3.75;1.05;;;11.10;99.90;;;;;;5005458;28;20574;-67
2023/05/25 04:02:05;;;;;;;0.08;0.08;;;11.10;99.90;;;;;;4996092;28;20046;-67
2023/05/25 04:04:31;;;;;;;0.17;0.17;;;11.10;99.90;;;;;;5006024;28;20057;-67
2023/05/25 04:06:56;;;;;;;0.38;0.38;;;11.10;99.90;;;;;;5003212;28;20085;-67
2023/05/25 04:09:22;;;;;;;0.55;0.55;;;11.10;99.90;;;;;;5003477;28;20080;-67
2023/05/25 04:11:47;;;;;;;0.10;0.10;;;11.10;99.90;;;;;;5004597;28;20034;-67
2023/05/25 04:14:13;;;;;;;0.20;0.20;;;11.10;99.90;;;;;;5003975;28;20691;-67
2023/05/25 04:16:42;;;;;;;0.10;0.10;;;11.10;99.90;;;;;;5001031;28;20539;-67
2023/05/25 04:19:08;;;;;;;0.70;0.45;;;11.20;99.90;;;;;;4993916;28;20409;-67
2023/05/25 04:21:33;;;;;;;0.57;0.57;;;11.10;99.90;;;;;;5007942;28;20050;-67
2023/05/25 04:24:00;;;;;;;3.40;0.65;;;11.20;99.90;;;;;;5009646;28;20057;-67
2023/05/25 04:26:25;;;;;;;0.75;0.55;;;11.20;99.90;;;;;;4994141;28;20055;-67
2023/05/25 04:28:53;;;;;;;0.17;0.15;;;11.20;99.90;;;;;;5007606;28;20065;-67
2023/05/25 04:31:19;;;;;;;0.55;0.55;;;11.20;99.90;;;;;;5005000;28;20053;-67
2023/05/25 04:33:45;;;;;;;2.05;1.17;;;11.20;99.90;;;;;;5003995;28;20493;-67
2023/05/25 04:36:10;;;;;;;0.10;0.10;;;11.30;99.90;;;;;;5003742;28;20045;-67
2023/05/25 04:38:36;;;;;;;21.83;1.27;;;11.30;99.90;;;;;;5007779;28;20592;-67
2023/05/25 04:41:02;;;;;;;0.13;0.13;;;11.30;99.90;;;;;;5045676;28;20054;-67
2023/05/25 04:43:31;;;;;;;1.45;0.65;;;11.40;99.90;;;;;;4998024;28;20050;-67
2023/05/25 04:45:58;;;;;;;0.17;0.17;;;11.40;99.90;;;;;;5005768;28;20041;-67
2023/05/25 04:48:31;;;;;;;0.10;0.10;;;11.40;99.90;;;;;;5009151;28;20046;-67
2023/05/25 04:50:56;;;;;;;16.85;1.45;;;11.50;99.90;;;;;;5002435;28;20050;-67
2023/05/25 04:53:22;;;;;;;0.10;0.10;;;11.50;99.90;;;;;;5009592;28;20104;-67
2023/05/25 04:55:48;;;;;;;3.47;1.70;;;11.50;99.90;;;;;;5002130;28;20461;-67
2023/05/25 04:58:14;;;;;;;0.10;0.10;;;11.50;99.90;;;;;;5006763;28;20125;-67
2023/05/25 05:00:40;;;;;;;0.10;0.10;;;11.60;99.90;;;;;;5000576;28;20088;-67
2023/05/25 05:03:05;;;;;;;0.10;0.10;;;11.60;99.90;;;;;;5009204;28;20088;-67
2023/05/25 05:05:31;;;;;;;2.65;0.32;;;11.70;99.90;;;;;;5009950;28;20042;-67
2023/05/25 05:07:57;;;;;;;0.17;0.17;;;11.80;99.90;;;;;;5008078;28;20048;-67
2023/05/25 05:10:22;;;;;;;0.50;0.50;;;11.80;99.90;;;;;;5003732;28;20041;-67
2023/05/25 05:12:48;;;;;;;1.27;1.10;;;11.80;99.90;;;;;;5007508;28;20034;-67
2023/05/25 05:15:14;;;;;;;1.55;0.43;;;11.80;99.90;;;;;;5000136;28;20387;-67
2023/05/25 05:17:39;;;;;;;0.00;0.00;;;11.80;99.90;;;;;;5009283;28;20056;-67
2023/05/25 05:20:06;;;;;;;0.30;0.30;;;11.80;99.90;;;;;;5009212;28;20050;-67
2023/05/25 05:22:32;;;;;;;0.05;0.05;;;11.80;99.90;;;;;;4998002;28;20052;-67
2023/05/25 05:24:58;;;;;;;0.10;0.10;;;11.90;99.90;;;;;;4994218;28;20123;-67
2023/05/25 05:27:25;;;;;;;0.22;0.22;;;11.90;99.90;;;;;;5002411;28;20057;-67
2023/05/25 05:29:50;;;;;;;0.40;0.40;;;12.00;99.90;;;;;;5006828;28;20057;-67
2023/05/25 05:32:16;;;;;;;0.10;0.10;;;12.00;99.90;;;;;;5006293;28;20482;-67
2023/05/25 05:34:41;;;;;;;0.10;0.10;;;12.10;99.90;;;;;;4996537;28;20052;-67
2023/05/25 05:37:07;;;;;;;4.90;1.30;;;12.20;99.90;;;;;;5004438;28;20053;-67
2023/05/25 05:39:32;;;;;;;0.10;0.10;;;12.30;99.90;;;;;;5000942;28;20046;-66
2023/05/25 05:41:58;;;;;;;0.30;0.30;;;12.30;99.90;;;;;;4997976;28;20526;-67
2023/05/25 05:44:24;;;;;;;0.32;0.32;;;12.40;99.90;;;;;;5009924;28;20044;-67
2023/05/25 05:46:50;;;;;;;0.22;0.15;;;12.50;99.90;;;;;;5007277;28;20033;-67
2023/05/25 05:49:15;;;;;;;0.28;0.28;;;12.50;99.90;;;;;;5034576;28;20135;-67
2023/05/25 05:51:41;;;;;;;0.43;0.43;;;12.60;99.90;;;;;;5008089;28;20042;-67
2023/05/25 05:54:06;;;;;;;0.10;0.10;;;12.70;99.90;;;;;;5004286;28;20045;-67
2023/05/25 05:56:32;;;;;;;0.10;0.10;;;12.70;99.90;;;;;;5006935;28;20037;-67
2023/05/25 05:58:57;;;;;;;0.13;0.13;;;12.80;99.90;;;;;;5000435;28;20046;-67
2023/05/25 06:01:24;;;;;;;0.52;0.52;;;12.80;99.90;;;;;;4998492;28;20038;-67
2023/05/25 06:03:51;;;;;;;0.00;0.00;;;12.90;99.90;;;;;;5003742;28;20393;-67
2023/05/25 06:06:17;;;;;;;0.08;0.08;;;12.90;99.90;;;;;;5004341;28;20042;-66
2023/05/25 06:08:43;;;;;;;0.20;0.20;;;13.00;99.90;;;;;;5004756;28;20044;-67
2023/05/25 06:11:08;;;;;;;0.22;0.22;;;13.10;99.90;;;;;;5001537;28;20065;-67
2023/05/25 06:13:34;;;;;;;1.98;0.63;;;13.10;99.90;;;;;;5005432;28;20504;-67
2023/05/25 06:15:59;;;;;;;0.00;0.00;;;13.20;99.90;;;;;;5008950;28;20038;-67
2023/05/25 06:18:25;;;;;;;0.47;0.43;;;13.20;99.90;;;;;;5010242;28;20077;-67
2023/05/25 06:20:51;;;;;;;0.00;0.00;;;13.20;99.90;;;;;;4998936;28;20061;-67
2023/05/25 06:23:17;;;;;;;3.42;1.98;;;13.30;99.90;;;;;;5006263;28;20072;-67
2023/05/25 06:25:44;;;;;;;0.00;0.00;;;13.30;99.90;;;;;;5001108;28;20069;-67
2023/05/25 06:28:09;;;;;;;3.88;1.17;;;13.30;99.90;;;;;;5034139;28;20058;-67
2023/05/25 06:30:35;;;;;;;0.10;0.10;;;13.30;99.90;;;;;;5008410;28;20045;-67
2023/05/25 06:33:01;;;;;;;0.10;0.10;;;13.40;99.90;;;;;;5001281;28;20125;-67
2023/05/25 06:35:26;;;;;;;0.10;0.10;;;13.40;99.90;;;;;;5011141;28;20037;-67
2023/05/25 06:37:52;;;;;;;0.75;0.75;;;13.40;99.90;;;;;;5016055;28;20096;-66
2023/05/25 06:40:18;;;;;;;0.10;0.10;;;13.40;99.90;;;;;;5000052;28;20100;-67
2023/05/25 06:42:43;;;;;;;0.10;0.10;;;13.50;99.90;;;;;;5009014;28;20042;-67
2023/05/25 06:45:10;;;;;;;0.10;0.10;;;13.50;99.90;;;;;;5012786;28;20052;-67
2023/05/25 06:47:36;;;;;;;1.05;0.55;;;13.60;99.90;;;;;;5005826;28;20057;-67
2023/05/25 06:50:02;;;;;;;0.00;0.00;;;13.60;99.90;;;;;;4998431;28;20046;-67
2023/05/25 06:52:27;;;;;;;0.13;0.13;;;13.60;99.90;;;;;;5006442;28;20129;-67
2023/05/25 06:54:54;;;;;;;0.00;0.00;;;13.60;99.90;;;;;;5008932;28;20125;-67
2023/05/25 06:57:21;;;;;;;0.88;0.80;;;13.70;99.90;;;;;;5011523;28;20045;-67
2023/05/25 06:59:46;;;;;;;4.20;2.03;;;13.70;99.90;;;;;;5008492;28;20038;-67
2023/05/25 07:02:12;;;;;;;0.00;0.00;;;13.70;99.90;;;;;;5014394;28;20036;-67
2023/05/25 07:04:37;;;;;;;1.05;0.47;;;13.70;99.90;;;;;;5014658;28;20060;-67
2023/05/25 07:07:03;;;;;;;0.28;0.28;;;13.80;99.90;;;;;;5005838;28;20383;-67
2023/05/25 07:09:29;;;;;;;0.20;0.20;;;13.90;99.90;;;;;;5010177;28;20088;-67
2023/05/25 07:11:54;;;;;;;0.00;0.00;;;14.00;99.90;;;;;;5014800;28;20057;-67
2023/05/25 07:14:20;;;;;;;0.00;0.00;;;13.90;99.90;;;;;;5009518;28;20042;-67
2023/05/25 07:16:45;;;;;;;0.00;0.00;;;13.90;99.90;;;;;;5010065;28;20042;-67
2023/05/25 07:19:11;;;;;;;2.30;1.13;;;13.80;99.90;;;;;;5017959;28;20461;-67
2023/05/25 07:21:37;;;;;;;0.10;0.10;;;13.80;99.90;;;;;;5018923;28;20393;-67
2023/05/25 07:24:03;;;;;;;0.10;0.10;;;13.80;99.90;;;;;;5006635;28;20125;-67
2023/05/25 07:26:32;;;;;;;0.00;0.00;;;13.80;99.90;;;;;;5015001;28;20061;-66
2023/05/25 07:28:59;;;;;;;0.25;0.25;;;13.80;99.90;;;;;;5007925;28;20049;-67
2023/05/25 07:31:25;;;;;;;12.40;1.95;;;13.80;99.90;;;;;;5007780;28;20045;-66
2023/05/25 07:33:50;;;;;;;1.75;1.33;;;13.80;99.90;;;;;;5009679;28;20441;-66
2023/05/25 07:36:17;;;;;;;0.20;0.20;;;13.80;99.90;;;;;;5007181;28;20034;-67
2023/05/25 07:38:43;;;;;;;0.32;0.32;;;13.90;99.90;;;;;;5004944;28;20075;-67
2023/05/25 07:41:09;;;;;;;1.30;1.10;;;14.00;99.90;;;;;;5009128;28;20073;-67
2023/05/25 07:43:34;;;;;;;0.13;0.13;;;14.10;99.90;;;;;;5009897;28;20429;-67
2023/05/25 07:46:03;;;;;;;1.55;0.90;;;14.10;99.90;;;;;;5023959;28;20053;-66
2023/05/25 07:48:28;;;;;;;0.10;0.10;;;14.20;99.90;;;;;;5008843;28;20044;-66
2023/05/25 07:50:54;;;;;;;0.98;0.70;;;14.20;99.90;;;;;;5016928;28;20700;-66
2023/05/25 07:53:20;;;;;;;0.08;0.08;;;14.30;99.90;;;;;;5010949;28;20115;-66
2023/05/25 07:55:45;;;;;;;0.00;0.00;;;14.30;99.90;;;;;;5004948;28;20573;-66
2023/05/25 07:58:11;;;;;;;0.00;0.00;;;14.40;99.90;;;;;;5011328;28;20045;-66
2023/05/25 08:00:37;;;;;;;1.20;1.15;;;14.50;99.90;;;;;;5006184;28;20513;-66
2023/05/25 08:03:02;;;;;;;0.00;0.00;;;14.50;99.90;;;;;;5001626;28;20418;-66
2023/05/25 08:05:28;;;;;;;2.25;0.57;;;14.60;99.90;;;;;;5001280;28;20038;-65
2023/05/25 08:07:54;;;;;;;1.17;0.65;;;14.70;99.90;;;;;;5008660;28;20139;-66
2023/05/25 08:10:20;;;;;;;0.10;0.10;;;14.90;99.90;;;;;;5010512;28;20037;-66
2023/05/25 08:12:45;;;;;;;1.60;1.00;;;14.90;99.90;;;;;;5010609;28;20389;-66
2023/05/25 08:15:12;;;;;;;0.10;0.10;;;14.90;99.90;;;;;;5005636;28;20053;-65
2023/05/25 08:17:38;;;;;;;0.20;0.20;;;14.90;99.90;;;;;;5006874;28;20401;-66
2023/05/25 08:20:07;;;;;;;4.28;1.80;;;15.00;99.90;;;;;;5002818;28;20054;-66
2023/05/25 08:22:33;;;;;;;0.00;0.00;;;14.90;99.90;;;;;;5006436;28;20053;-66
2023/05/25 08:24:58;;;;;;;0.57;0.57;;;15.10;99.90;;;;;;5000489;28;20134;-66
2023/05/25 08:27:24;;;;;;;0.40;0.40;;;15.20;99.90;;;;;;5004874;28;20046;-66
2023/05/25 08:29:50;;;;;;;0.00;0.00;;;15.10;99.90;;;;;;4999955;28;20050;-65
2023/05/25 08:32:15;;;;;;;3.00;0.93;;;15.20;99.90;;;;;;4995900;28;20042;-66
2023/05/25 08:34:41;;;;;;;0.00;0.00;;;15.30;99.90;;;;;;5005544;28;20061;-66
2023/05/25 08:37:06;;;;;;;0.20;0.20;;;15.30;99.90;;;;;;5009935;28;21182;-66
2023/05/25 08:39:32;;;;;;;0.50;0.50;;;15.30;99.90;;;;;;5003373;28;20132;-66
2023/05/25 08:41:58;;;;;;;3.30;2.83;;;15.30;99.90;;;;;;5006395;28;20042;-67
2023/05/25 08:44:26;;;;;;;0.45;0.45;;;15.20;99.90;;;;;;5010300;28;20038;-65
2023/05/25 08:46:53;;;;;;;0.00;0.00;;;15.30;99.90;;;;;;5008058;28;20429;-65
2023/05/25 08:49:21;;;;;;;0.32;0.28;;;15.40;99.90;;;;;;5003719;28;20107;-66
2023/05/25 08:51:50;;;;;;;0.30;0.30;;;15.40;99.90;;;;;;5008509;28;20508;-66
2023/05/25 08:54:28;;;;;;;0.00;0.00;;;15.50;99.90;;;;;;5007733;28;20065;-66
2023/05/25 08:57:00;;;;;;;2.50;1.65;;;15.50;99.90;;;;;;4995208;28;20049;-66
2023/05/25 08:59:48;;;;;;;2.35;1.23;;;15.60;99.90;;;;;;5005309;28;20029;-66
2023/05/25 09:02:41;;;;;;;1.33;1.23;;;15.70;99.90;;;;;;5001587;28;20046;-65
2023/05/25 09:05:07;;;;;;;0.57;0.57;;;15.70;99.90;;;;;;5006666;28;20076;-65
2023/05/25 09:07:34;;;;;;;3.13;1.27;;;15.70;99.90;;;;;;5004884;28;20371;-65
2023/05/25 09:10:01;;;;;;;0.35;0.35;;;15.70;99.90;;;;;;5009223;28;20054;-65
2023/05/25 09:12:29;;;;;;;0.20;0.20;;;15.80;99.90;;;;;;5004726;28;20046;-65
2023/05/25 09:14:56;;;;;;;2.25;1.73;;;15.90;99.90;;;;;;5005470;28;20049;-66
2023/05/25 09:17:22;;;;;;;1.02;1.00;;;15.90;99.90;;;;;;4999090;28;20038;-65
2023/05/25 09:19:49;;;;;;;0.22;0.22;;;15.80;99.90;;;;;;5004490;28;20532;-65
2023/05/25 09:22:14;;;;;;;0.10;0.10;;;15.60;99.90;;;;;;5012479;28;20117;-65
2023/05/25 09:24:42;;;;;;;1.25;0.38;;;15.60;99.90;;;;;;5004351;28;20901;-65
2023/05/25 09:27:11;;;;;;;0.00;0.00;;;15.80;99.90;;;;;;5006954;28;20046;-66
2023/05/25 09:29:37;;;;;;;0.10;0.10;;;16.00;99.90;;;;;;5010474;28;20077;-65
2023/05/25 09:32:05;;;;;;;0.00;0.00;;;16.10;99.90;;;;;;5008704;28;20069;-65
2023/05/25 09:34:32;;;;;;;0.38;0.38;;;16.30;99.90;;;;;;5003030;28;20054;-65
2023/05/25 09:36:59;;;;;;;0.10;0.10;;;16.30;99.90;;;;;;5007653;28;20511;-64
2023/05/25 09:39:25;;;;;;;0.43;0.43;;;16.30;99.90;;;;;;5009682;28;20517;-65
2023/05/25 09:41:51;;;;;;;0.00;0.00;;;16.60;99.90;;;;;;5000970;28;20221;-65
2023/05/25 09:44:17;;;;;;;2.67;0.65;;;16.90;99.90;;;;;;5009091;28;20481;-65
2023/05/25 09:46:43;;;;;;;0.32;0.32;;;17.40;99.90;;;;;;5008145;28;20034;-65
2023/05/25 09:49:10;;;;;;;0.50;0.50;;;17.60;99.90;;;;;;5000916;28;20049;-65
2023/05/25 09:51:36;;;;;;;0.20;0.20;;;17.70;99.90;;;;;;5006522;28;20042;-65
2023/05/25 09:54:09;;;;;;;0.20;0.20;;;17.80;99.90;;;;;;4997416;28;20042;-65
2023/05/25 09:56:34;;;;;;;0.28;0.28;;;18.10;99.90;;;;;;5006672;28;20042;-64
2023/05/25 09:59:00;;;;;;;0.75;0.75;;;18.40;99.90;;;;;;5006237;28;20096;-65
2023/05/25 10:01:27;;;;;;;3.42;0.85;;;18.30;99.90;;;;;;4996673;28;20053;-65
2023/05/25 10:03:55;;;;;;;0.28;0.28;;;18.40;99.90;;;;;;5009467;28;20068;-65
2023/05/25 10:06:25;;;;;;;0.15;0.15;;;18.40;99.90;;;;;;5002420;28;20143;-65
2023/05/25 10:08:55;;;;;;;0.20;0.20;;;18.30;99.90;;;;;;5019024;28;20496;-65
2023/05/25 10:11:25;;;;;;;0.45;0.45;;;18.20;99.90;;;;;;5014501;28;20129;-65
2023/05/25 10:13:53;;;;;;;0.82;0.82;;;18.20;99.90;;;;;;5001899;28;20478;-65
2023/05/25 10:16:24;;;;;;;0.13;0.13;;;18.30;99.90;;;;;;5007637;28;20389;-65
2023/05/25 10:19:20;;;;;;;0.10;0.10;;;18.50;99.90;;;;;;5003569;28;20038;-64
2023/05/25 10:21:54;;;;;;;2.38;1.23;;;18.30;99.90;;;;;;5002932;28;20054;-65
2023/05/25 10:24:27;;;;;;;1.40;0.55;;;18.00;99.90;;;;;;5000176;28;20050;-65
2023/05/25 10:26:53;;;;;;;;;;;18.30;99.90;;;;;;4997679;28;20034;-65
2023/05/25 10:29:19;;;;;;;0.00;0.00;;;18.10;99.90;;;;;;5001717;28;20013;-65
2023/05/25 10:31:46;;;;;;;1.45;0.85;;;18.50;99.90;;;;;;5015965;28;20087;-65
2023/05/25 10:34:13;;;;;;;5.72;2.78;;;18.70;99.90;;;;;;4998972;28;20055;-65
2023/05/25 10:36:39;;;;;;;0.35;0.10;;;18.60;99.90;;;;;;5003450;28;20042;-65
2023/05/25 10:39:07;;;;;;;0.35;0.35;;;19.00;99.90;;;;;;5001431;28;20131;-65
2023/05/25 10:41:32;;;;;;;1.10;0.65;;;19.00;99.90;;;;;;4998679;28;20061;-65
2023/05/25 10:43:59;;;;;;;0.20;0.20;;;18.80;99.90;;;;;;5002631;28;20433;-65
2023/05/25 10:46:25;;;;;;;3.38;0.98;;;18.70;99.90;;;;;;5008102;28;20046;-65
2023/05/25 10:48:51;;;;;;;0.00;0.00;;;19.10;99.90;;;;;;5001845;28;20136;-65
2023/05/25 10:51:21;;;;;;;6.53;1.15;;;19.30;99.90;;;;;;5005036;28;20050;-65
2023/05/25 10:53:57;;;;;;;2.70;1.90;;;19.30;99.90;;;;;;5002471;28;20556;-65
2023/05/25 10:56:23;;;;;;;0.45;0.45;;;19.20;99.90;;;;;;5005746;28;20088;-65
2023/05/25 10:58:51;;;;;;;1.63;1.52;;;18.80;99.90;;;;;;4990790;28;20437;-65
2023/05/25 11:01:17;;;;;;;4.85;0.52;;;18.70;99.90;;;;;;5005558;28;20565;-65
2023/05/25 11:04:18;;;;;;;0.20;0.20;;;18.80;99.90;;;;;;4999930;28;20129;-65
2023/05/25 11:06:43;;;;;;;1.33;0.95;;;18.70;99.90;;;;;;5004908;28;20120;-65
2023/05/25 11:09:31;;;;;;;1.55;0.90;;;18.90;99.90;;;;;;5007866;28;20129;-65
2023/05/25 11:12:01;;;;;;;0.90;0.57;;;18.60;99.90;;;;;;4995882;28;20499;-65
2023/05/25 11:14:28;;;;;;;0.20;0.20;;;18.30;99.90;;;;;;5003379;28;20077;-65
2023/05/25 11:17:10;;;;;;;0.65;0.38;;;18.40;99.90;;;;;;5007835;28;20042;-65
2023/05/25 11:19:50;;;;;;;2.65;0.45;;;18.70;99.90;;;;;;5001939;28;20069;-65
2023/05/25 11:22:35;;;;;;;4.50;0.77;;;18.70;99.90;;;;;;5006648;28;20396;-65
2023/05/25 11:25:02;;;;;;;0.10;0.10;;;19.00;99.90;;;;;;4997911;28;20049;-65
2023/05/25 11:27:29;;;;;;;0.32;0.32;;;18.90;99.90;;;;;;5004530;28;20069;-65
2023/05/25 11:29:56;;;;;;;0.00;0.00;;;18.80;99.90;;;;;;5016516;28;20053;-65
2023/05/25 11:32:22;;;;;;;0.10;0.10;;;18.80;99.90;;;;;;5015128;28;20058;-65
2023/05/25 11:34:51;;;;;;;4.35;1.35;;;18.50;99.90;;;;;;5002706;28;20046;-65
2023/05/25 11:37:23;;;;;;;0.30;0.30;;;18.30;99.90;;;;;;5010915;28;20058;-65
2023/05/25 11:39:53;;;;;;;0.93;0.57;;;18.20;99.90;;;;;;5012407;28;20057;-65
2023/05/25 11:42:23;;;;;;;1.48;0.88;;;17.90;99.90;;;;;;5010955;28;20041;-65
2023/05/25 11:44:49;;;;;;;0.10;0.10;;;18.70;99.90;;;;;;5001780;28;20135;-65
2023/05/25 11:47:21;;;;;;;1.08;0.70;;;18.50;99.90;;;;;;5010867;28;20046;-65
2023/05/25 11:49:48;;;;;;;0.00;0.00;;;19.10;99.90;;;;;;5025997;28;20053;-65
2023/05/25 11:52:15;;;;;;;1.45;0.40;;;18.80;99.90;;;;;;5002930;28;20136;-66
2023/05/25 11:54:42;;;;;;;5.18;1.98;;;18.90;99.90;;;;;;5011187;28;20131;-66
2023/05/25 11:57:17;;;;;;;1.27;1.13;;;18.30;99.90;;;;;;5008363;28;20144;-67
2023/05/25 11:59:48;;;;;;;1.13;0.95;;;18.60;99.90;;;;;;5009812;28;20089;-66
2023/05/25 12:02:14;;;;;;;1.83;1.00;;;18.60;99.90;;;;;;5016530;28;20072;-67
2023/05/25 12:04:41;;;;;;;0.05;0.05;;;18.30;99.90;;;;;;5005438;28;20078;-66
2023/05/25 12:07:07;;;;;;;0.38;0.38;;;18.60;99.90;;;;;;5011201;28;20100;-66
2023/05/25 12:09:33;;;;;;;0.20;0.20;;;18.70;99.90;;;;;;5002830;28;20402;-65
2023/05/25 12:12:02;;;;;;;1.20;0.73;;;18.30;99.90;;;;;;5009414;28;20056;-66
2023/05/25 12:14:27;;;;;;;0.98;0.52;;;18.20;99.90;;;;;;4999490;28;20432;-66
2023/05/25 12:16:53;;;;;;;3.58;1.42;;;18.90;99.90;;;;;;5009724;28;20030;-66
2023/05/25 12:19:20;;;;;;;4.47;2.38;;;18.90;99.90;;;;;;5011401;28;20049;-66
2023/05/25 12:21:49;;;;;;;5.07;1.52;;;19.20;99.90;;;;;;5004327;28;20060;-66
2023/05/25 12:24:16;;;;;;;1.17;0.80;;;19.80;99.90;;;;;;5009416;28;20775;-66
2023/05/25 12:27:00;;;;;;;0.95;0.73;;;19.90;99.90;;;;;;5011641;28;20053;-66
2023/05/25 12:29:27;;;;;;;3.03;1.30;;;20.20;99.90;;;;;;5002516;28;20062;-66
2023/05/25 12:32:02;;;;;;;0.95;0.95;;;20.40;99.90;;;;;;5026643;28;20050;-66
2023/05/25 12:34:28;;;;;;;0.38;0.38;;;20.50;99.90;;;;;;5005492;28;20401;-67
2023/05/25 12:36:55;;;;;;;0.93;0.93;;;20.40;99.90;;;;;;5007796;28;20038;-67
2023/05/25 12:39:31;;;;;;;0.47;0.15;;;20.50;99.90;;;;;;4999988;28;20046;-67
2023/05/25 12:42:01;;;;;;;0.57;0.55;;;20.20;99.40;;;;;;5040535;28;20089;-67
2023/05/25 12:44:31;;;;;;;3.20;1.45;;;20.40;99.70;;;;;;5011747;28;20529;-67
2023/05/25 12:47:08;;;;;;;0.38;0.38;;;20.50;99.60;;;;;;5001615;28;20053;-67
2023/05/25 12:49:34;;;;;;;0.30;0.30;;;20.40;99.90;;;;;;5003382;28;20465;-67